Time;durP1;ratioP1;P1;durP2;ratioP2;P2;SDS_P1;SDS_P2;PMS_P1;PMS_P2;Temp;Humidity;BMP_temperature;BMP_pressure;BME280_temperature;BME280_humidity;BME280_pressure;Samples;Min_cycle;Max_cycle;Signal;HPM_P1;HPM_P2
2023/12/21 00:01:04;;;;;;;8.32;2.40;;;10.10;99.90;;;;;;5048847;28;20041;-80
2023/12/21 00:03:29;;;;;;;6.93;2.90;;;10.10;99.90;;;;;;5042584;28;20030;-81
2023/12/21 00:05:55;;;;;;;10.32;2.83;;;10.10;99.90;;;;;;5047436;28;20163;-79
2023/12/21 00:08:21;;;;;;;13.00;3.80;;;10.10;99.90;;;;;;5037365;28;20086;-78
2023/12/21 00:10:46;;;;;;;7.65;3.05;;;10.10;99.90;;;;;;5077632;28;20033;-79
2023/12/21 00:13:12;;;;;;;13.50;3.45;;;10.20;99.90;;;;;;5042470;28;20025;-79
2023/12/21 00:15:38;;;;;;;11.82;3.60;;;10.20;99.90;;;;;;5046606;28;20052;-78
2023/12/21 00:18:03;;;;;;;10.93;3.53;;;10.20;99.90;;;;;;5048274;28;20120;-78
2023/12/21 00:20:29;;;;;;;12.38;3.97;;;10.20;99.90;;;;;;5044167;28;20490;-79
2023/12/21 00:22:55;;;;;;;9.20;3.22;;;10.20;99.90;;;;;;5042005;28;20017;-79
2023/12/21 00:25:20;;;;;;;9.85;2.88;;;10.20;99.90;;;;;;5043091;28;20029;-79
2023/12/21 00:27:46;;;;;;;11.32;3.20;;;10.20;99.90;;;;;;5046329;28;20449;-80
2023/12/21 00:30:12;;;;;;;10.68;3.05;;;10.20;99.90;;;;;;5061986;28;20131;-79
2023/12/21 00:32:38;;;;;;;14.63;3.33;;;10.20;99.90;;;;;;5075609;28;20079;-80
2023/12/21 00:35:04;;;;;;;9.95;3.80;;;10.20;99.90;;;;;;5036483;28;20033;-78
2023/12/21 00:37:36;;;;;;;12.52;3.60;;;10.20;99.90;;;;;;5047007;28;20036;-82
2023/12/21 00:40:03;;;;;;;9.60;3.20;;;10.20;99.90;;;;;;5048430;28;20032;-79
2023/12/21 00:42:30;;;;;;;11.95;3.15;;;10.20;99.90;;;;;;5073875;28;20495;-79
2023/12/21 00:44:56;;;;;;;15.18;3.08;;;10.20;99.90;;;;;;5057826;28;20021;-80
2023/12/21 00:47:23;;;;;;;7.13;2.20;;;10.20;99.90;;;;;;5043769;28;20476;-80
2023/12/21 00:49:48;;;;;;;12.98;3.10;;;10.20;99.90;;;;;;5047022;28;20543;-79
2023/12/21 00:52:14;;;;;;;12.63;3.53;;;10.20;99.90;;;;;;5047128;28;20025;-79
2023/12/21 00:54:40;;;;;;;14.18;3.40;;;10.20;99.90;;;;;;5047263;28;20040;-78
2023/12/21 00:57:05;;;;;;;11.85;2.95;;;10.20;99.90;;;;;;5043822;28;20034;-78
2023/12/21 00:59:31;;;;;;;11.30;4.05;;;10.20;99.90;;;;;;5043317;28;20044;-79
2023/12/21 01:01:57;;;;;;;10.68;3.75;;;10.20;99.90;;;;;;5047544;28;20039;-79
2023/12/21 01:04:24;;;;;;;10.43;3.05;;;10.20;99.90;;;;;;5044568;28;20021;-79
2023/12/21 01:06:50;;;;;;;10.50;2.85;;;10.20;99.90;;;;;;5042285;28;20111;-79
2023/12/21 01:09:15;;;;;;;18.02;3.50;;;10.20;99.90;;;;;;5046870;28;20426;-80
2023/12/21 01:11:41;;;;;;;11.43;3.28;;;10.20;99.90;;;;;;5037474;28;20041;-81
2023/12/21 01:14:07;;;;;;;7.00;2.90;;;10.20;99.90;;;;;;5036028;28;20036;-81
2023/12/21 01:16:32;;;;;;;9.25;3.20;;;10.20;99.90;;;;;;5044883;28;20104;-79
2023/12/21 01:18:58;;;;;;;11.30;3.13;;;10.30;99.90;;;;;;5078353;28;20119;-80
2023/12/21 01:21:24;;;;;;;11.90;3.17;;;10.30;99.90;;;;;;5034560;28;20481;-78
2023/12/21 01:23:50;;;;;;;13.02;3.25;;;10.30;99.90;;;;;;5063050;28;20036;-79
2023/12/21 01:26:16;;;;;;;9.57;3.92;;;10.30;99.90;;;;;;5042942;28;20029;-80
2023/12/21 01:28:42;;;;;;;12.73;4.28;;;10.30;99.90;;;;;;5036432;28;20116;-81
2023/12/21 01:31:08;;;;;;;8.90;4.32;;;10.30;99.90;;;;;;5041538;28;20063;-80
2023/12/21 01:33:34;;;;;;;11.35;4.22;;;10.30;99.90;;;;;;5040791;28;20028;-80
2023/12/21 01:35:59;;;;;;;9.80;4.00;;;10.30;99.90;;;;;;5075379;28;20022;-78
2023/12/21 01:38:25;;;;;;;13.90;4.10;;;10.40;99.90;;;;;;5043744;28;20366;-78
2023/12/21 01:40:51;;;;;;;11.52;4.00;;;10.30;99.90;;;;;;5076550;28;20516;-78
2023/12/21 01:43:16;;;;;;;15.57;4.68;;;10.30;99.90;;;;;;5036809;28;20044;-79
2023/12/21 01:45:42;;;;;;;15.45;4.53;;;10.40;99.90;;;;;;5039389;28;20112;-78
2023/12/21 01:48:10;;;;;;;15.45;5.15;;;10.40;99.90;;;;;;5043776;28;20049;-78
2023/12/21 01:50:36;;;;;;;13.88;5.20;;;10.30;99.90;;;;;;5036208;28;20037;-79
2023/12/21 01:53:03;;;;;;;13.32;4.20;;;10.30;99.90;;;;;;5044292;28;20090;-79
2023/12/21 01:55:30;;;;;;;15.43;6.13;;;10.30;99.90;;;;;;5045943;28;20037;-79
2023/12/21 01:57:56;;;;;;;17.00;6.57;;;10.30;99.90;;;;;;5044542;28;20089;-78
2023/12/21 02:00:22;;;;;;;15.88;6.32;;;10.30;99.90;;;;;;5025581;28;20116;-78
2023/12/21 02:02:48;;;;;;;15.15;5.63;;;10.30;99.90;;;;;;5072237;28;20430;-79
2023/12/21 02:05:14;;;;;;;14.48;5.88;;;10.30;99.90;;;;;;5046150;28;20037;-79
2023/12/21 02:07:40;;;;;;;17.38;6.10;;;10.30;99.90;;;;;;5044325;28;20040;-79
2023/12/21 02:10:06;;;;;;;12.82;4.68;;;10.30;99.90;;;;;;5042111;28;20029;-80
2023/12/21 02:12:32;;;;;;;15.77;5.95;;;10.40;99.90;;;;;;5039682;28;20028;-79
2023/12/21 02:14:57;;;;;;;14.98;3.83;;;10.30;99.90;;;;;;5043016;28;20489;-77
2023/12/21 02:17:24;;;;;;;11.65;4.13;;;10.30;99.90;;;;;;5047267;28;20104;-78
2023/12/21 02:19:50;;;;;;;12.52;4.05;;;10.30;99.90;;;;;;5046151;28;20044;-80
2023/12/21 02:22:17;;;;;;;11.68;3.78;;;10.30;99.90;;;;;;5045893;28;20096;-79
2023/12/21 02:24:43;;;;;;;12.88;3.90;;;10.30;99.90;;;;;;5043380;28;20477;-78
2023/12/21 02:27:09;;;;;;;12.60;3.05;;;10.30;99.90;;;;;;5044765;28;20032;-79
2023/12/21 02:29:35;;;;;;;14.18;3.75;;;10.30;99.90;;;;;;5047342;28;20029;-79
2023/12/21 02:32:00;;;;;;;11.32;3.60;;;10.30;99.90;;;;;;5046294;28;20029;-79
2023/12/21 02:34:26;;;;;;;14.25;3.83;;;10.30;99.90;;;;;;5062010;28;20021;-79
2023/12/21 02:36:52;;;;;;;14.57;2.95;;;10.30;99.90;;;;;;5044408;28;20441;-78
2023/12/21 02:39:18;;;;;;;13.05;3.22;;;10.30;99.90;;;;;;5034140;28;20029;-78
2023/12/21 02:41:43;;;;;;;13.75;3.70;;;10.30;99.90;;;;;;5040661;28;20131;-80
2023/12/21 02:44:09;;;;;;;11.02;3.10;;;10.30;99.90;;;;;;5045848;28;20298;-79
2023/12/21 02:46:34;;;;;;;10.73;3.03;;;10.30;99.90;;;;;;5057468;28;20112;-78
2023/12/21 02:49:00;;;;;;;12.25;3.15;;;10.30;99.90;;;;;;5064128;28;20013;-80
2023/12/21 02:51:26;;;;;;;12.07;4.65;;;10.30;99.90;;;;;;5048570;28;20033;-80
2023/12/21 02:53:51;;;;;;;9.05;3.22;;;10.30;99.90;;;;;;5050076;28;20029;-78
2023/12/21 02:56:17;;;;;;;15.65;4.80;;;10.20;99.90;;;;;;5044525;28;20385;-79
2023/12/21 02:58:43;;;;;;;11.60;4.53;;;10.30;99.90;;;;;;5049429;28;20036;-79
2023/12/21 03:01:08;;;;;;;13.20;5.13;;;10.30;99.90;;;;;;5048346;28;20036;-80
2023/12/21 03:03:34;;;;;;;14.23;4.30;;;10.30;99.90;;;;;;5054017;28;20021;-78
2023/12/21 03:06:00;;;;;;;9.13;3.35;;;10.30;99.90;;;;;;5042609;28;20040;-80
2023/12/21 03:08:25;;;;;;;10.15;3.22;;;10.30;99.90;;;;;;5048728;28;20106;-79
2023/12/21 03:10:51;;;;;;;13.95;3.95;;;10.30;99.90;;;;;;5046740;28;20186;-80
2023/12/21 03:13:17;;;;;;;11.75;4.38;;;10.30;99.90;;;;;;5038709;28;20052;-78
2023/12/21 03:15:43;;;;;;;13.25;3.97;;;10.30;99.90;;;;;;5045655;28;20036;-79
2023/12/21 03:18:08;;;;;;;11.38;4.10;;;10.30;99.90;;;;;;5047286;28;20025;-79
2023/12/21 03:20:34;;;;;;;12.15;4.60;;;10.30;99.90;;;;;;5044210;28;20397;-79
2023/12/21 03:23:01;;;;;;;13.23;3.45;;;10.30;99.90;;;;;;5048096;28;20394;-78
2023/12/21 03:25:26;;;;;;;16.42;5.28;;;10.30;99.90;;;;;;5049130;28;20025;-79
2023/12/21 03:27:52;;;;;;;12.80;5.07;;;10.30;99.90;;;;;;5045657;28;20028;-78
2023/12/21 03:30:18;;;;;;;15.00;5.00;;;10.30;99.90;;;;;;5045812;28;20045;-79
2023/12/21 03:32:43;;;;;;;12.98;4.05;;;10.30;99.90;;;;;;5043596;28;20337;-79
2023/12/21 03:35:09;;;;;;;11.50;4.50;;;10.30;99.90;;;;;;5049469;28;20045;-79
2023/12/21 03:37:36;;;;;;;21.63;5.28;;;10.30;99.90;;;;;;5047109;28;20229;-78
2023/12/21 03:40:01;;;;;;;13.48;4.50;;;10.30;99.90;;;;;;5036089;28;20029;-79
2023/12/21 03:42:27;;;;;;;11.15;3.92;;;10.30;99.90;;;;;;5045283;28;20021;-79
2023/12/21 03:44:53;;;;;;;10.18;3.00;;;10.30;99.90;;;;;;5046186;28;20098;-79
2023/12/21 03:47:18;;;;;;;19.42;4.22;;;10.30;99.90;;;;;;5073928;28;20036;-79
2023/12/21 03:49:44;;;;;;;14.45;4.75;;;10.30;99.90;;;;;;5049319;28;20036;-79
2023/12/21 03:52:10;;;;;;;16.67;4.85;;;10.30;99.90;;;;;;5046377;28;20063;-78
2023/12/21 03:54:35;;;;;;;13.30;5.10;;;10.30;99.90;;;;;;5045468;28;20022;-79
2023/12/21 03:57:01;;;;;;;14.95;4.47;;;10.30;99.90;;;;;;5045559;28;20028;-79
2023/12/21 03:59:27;;;;;;;13.52;3.97;;;10.30;99.90;;;;;;5045589;28;20512;-79
2023/12/21 04:01:52;;;;;;;17.60;6.00;;;10.30;99.90;;;;;;5036212;28;20393;-79
2023/12/21 04:04:19;;;;;;;15.00;5.57;;;10.30;99.90;;;;;;5047630;28;20492;-78
2023/12/21 04:06:44;;;;;;;16.38;5.30;;;10.30;99.90;;;;;;5049154;28;20087;-79
2023/12/21 04:09:10;;;;;;;19.42;5.82;;;10.30;99.90;;;;;;5077860;28;20029;-78
2023/12/21 04:11:35;;;;;;;12.27;4.15;;;10.30;99.90;;;;;;5045494;28;20028;-78
2023/12/21 04:14:01;;;;;;;14.27;4.78;;;10.30;99.90;;;;;;5080035;28;20033;-79
2023/12/21 04:16:27;;;;;;;13.45;4.15;;;10.30;99.90;;;;;;5043933;28;20113;-79
2023/12/21 04:18:52;;;;;;;15.45;4.53;;;10.30;99.90;;;;;;5042899;28;20061;-80
2023/12/21 04:21:18;;;;;;;14.10;3.85;;;10.30;99.90;;;;;;5064806;28;20033;-80
2023/12/21 04:23:45;;;;;;;17.92;5.63;;;10.30;99.90;;;;;;5046420;28;20024;-80
2023/12/21 04:26:20;;;;;;;14.55;4.07;;;10.30;99.90;;;;;;5038598;28;20032;-80
2023/12/21 04:28:47;;;;;;;13.30;4.28;;;10.30;99.90;;;;;;5074729;28;20116;-80
2023/12/21 04:31:20;;;;;;;12.30;3.70;;;10.40;99.90;;;;;;5074028;28;20045;-79
2023/12/21 04:33:49;;;;;;;15.23;3.92;;;10.40;99.90;;;;;;5049095;28;20087;-79
2023/12/21 04:36:15;;;;;;;11.80;3.63;;;10.40;99.90;;;;;;5078891;28;20026;-80
2023/12/21 04:38:40;;;;;;;14.93;4.18;;;10.30;99.90;;;;;;5044319;28;20029;-79
2023/12/21 04:41:06;;;;;;;10.90;3.50;;;10.40;99.90;;;;;;5043470;28;20029;-79
2023/12/21 04:43:32;;;;;;;9.70;3.05;;;10.40;99.90;;;;;;5048845;28;20021;-80
2023/12/21 04:45:57;;;;;;;14.35;4.13;;;10.40;99.90;;;;;;5037069;28;20504;-79
2023/12/21 04:48:23;;;;;;;14.52;4.65;;;10.40;99.90;;;;;;5026158;28;20032;-79
2023/12/21 04:50:49;;;;;;;15.63;4.75;;;10.40;99.90;;;;;;5045016;28;20035;-80
2023/12/21 04:53:14;;;;;;;12.68;4.05;;;10.40;99.90;;;;;;5035825;28;20025;-79
2023/12/21 04:55:40;;;;;;;12.65;4.05;;;10.40;99.90;;;;;;5035491;28;20037;-79
2023/12/21 04:58:06;;;;;;;20.17;4.90;;;10.40;99.90;;;;;;5052822;28;20071;-79
2023/12/21 05:00:31;;;;;;;20.92;4.93;;;10.40;99.90;;;;;;5045734;28;20474;-81
2023/12/21 05:02:57;;;;;;;15.63;4.47;;;10.50;99.90;;;;;;5077131;28;20436;-80
2023/12/21 05:05:22;;;;;;;18.98;4.20;;;10.50;99.90;;;;;;5046831;28;20021;-79
2023/12/21 05:07:48;;;;;;;13.63;4.20;;;10.40;99.90;;;;;;5045116;28;20024;-80
2023/12/21 05:10:14;;;;;;;15.95;3.90;;;10.50;99.90;;;;;;5045665;28;20028;-81
2023/12/21 05:12:39;;;;;;;12.45;3.75;;;10.50;99.90;;;;;;5044413;28;20029;-80
2023/12/21 05:15:05;;;;;;;13.10;3.55;;;10.50;99.90;;;;;;5044977;28;20025;-79
2023/12/21 05:17:31;;;;;;;22.42;4.60;;;10.60;99.90;;;;;;5075848;28;20075;-79
2023/12/21 05:19:57;;;;;;;16.67;3.72;;;10.50;99.90;;;;;;5046566;28;20068;-79
2023/12/21 05:22:22;;;;;;;18.20;3.25;;;10.50;99.90;;;;;;5046894;28;20036;-79
2023/12/21 05:24:48;;;;;;;13.07;2.92;;;10.60;99.90;;;;;;5047985;28;20044;-81
2023/12/21 05:27:14;;;;;;;14.30;3.03;;;10.60;99.90;;;;;;5044057;28;20063;-80
2023/12/21 05:29:41;;;;;;;15.88;3.85;;;10.50;99.90;;;;;;5044984;28;20504;-82
2023/12/21 05:32:07;;;;;;;20.63;4.38;;;10.50;99.90;;;;;;5035607;28;20044;-83
2023/12/21 05:34:33;;;;;;;17.63;3.10;;;10.50;99.90;;;;;;5035855;28;20384;-81
2023/12/21 05:36:59;;;;;;;13.52;2.90;;;10.50;99.90;;;;;;5046881;28;20095;-80
2023/12/21 05:39:25;;;;;;;13.45;3.40;;;10.50;99.90;;;;;;5040827;28;20038;-79
2023/12/21 05:41:51;;;;;;;16.95;3.45;;;10.50;99.90;;;;;;5075746;28;20033;-80
2023/12/21 05:44:17;;;;;;;13.43;2.95;;;10.50;99.90;;;;;;5075149;28;20032;-80
2023/12/21 05:46:43;;;;;;;15.40;3.13;;;10.50;99.90;;;;;;5037312;28;20036;-79
2023/12/21 05:49:09;;;;;;;15.90;3.75;;;10.50;99.90;;;;;;5044700;28;20029;-83
2023/12/21 05:51:35;;;;;;;20.45;3.58;;;10.40;99.90;;;;;;5041780;28;20020;-79
2023/12/21 05:54:00;;;;;;;19.30;3.58;;;10.50;99.90;;;;;;5044329;28;20386;-79
2023/12/21 05:56:26;;;;;;;16.17;3.10;;;10.50;99.90;;;;;;5043411;28;20366;-81
2023/12/21 05:58:52;;;;;;;16.45;3.28;;;10.50;99.90;;;;;;5043119;28;20063;-80
2023/12/21 06:01:17;;;;;;;18.77;3.85;;;10.50;99.90;;;;;;5045453;28;20036;-82
2023/12/21 06:03:43;;;;;;;9.18;2.25;;;10.50;99.90;;;;;;5046784;28;20056;-81
2023/12/21 06:06:09;;;;;;;13.80;2.28;;;10.50;99.90;;;;;;5043502;28;20079;-79
2023/12/21 06:08:34;;;;;;;11.43;2.05;;;10.50;99.90;;;;;;5045260;28;20041;-80
2023/12/21 06:11:00;;;;;;;11.38;2.45;;;10.50;99.90;;;;;;5045480;28;20086;-82
2023/12/21 06:13:28;;;;;;;10.77;1.70;;;10.50;99.90;;;;;;5029934;28;20029;-81
2023/12/21 06:15:53;;;;;;;10.25;1.67;;;10.50;99.90;;;;;;5046084;28;20273;-80
2023/12/21 06:18:19;;;;;;;12.57;1.58;;;10.50;99.90;;;;;;5047175;28;20286;-79
2023/12/21 06:20:45;;;;;;;8.35;1.45;;;10.50;99.90;;;;;;5073948;28;20128;-80
2023/12/21 06:23:10;;;;;;;8.27;1.58;;;10.50;99.90;;;;;;5047193;28;20389;-78
2023/12/21 06:25:36;;;;;;;8.15;1.48;;;10.50;99.90;;;;;;5050454;28;20033;-78
2023/12/21 06:28:02;;;;;;;11.93;2.10;;;10.40;99.90;;;;;;5038916;28;20017;-79
2023/12/21 06:30:28;;;;;;;8.57;1.50;;;10.50;99.90;;;;;;5037403;28;20106;-81
2023/12/21 06:32:54;;;;;;;10.98;1.58;;;10.50;99.90;;;;;;5043710;28;20021;-79
2023/12/21 06:35:19;;;;;;;14.00;1.50;;;10.50;99.90;;;;;;5039263;28;20465;-79
2023/12/21 06:37:45;;;;;;;11.50;1.13;;;10.50;99.90;;;;;;5049133;28;20032;-79
2023/12/21 06:40:11;;;;;;;10.07;2.13;;;10.50;99.90;;;;;;5077102;28;20073;-80
2023/12/21 06:42:37;;;;;;;16.23;1.65;;;10.50;99.90;;;;;;5049810;28;20028;-78
2023/12/21 06:45:03;;;;;;;8.90;1.30;;;10.50;99.90;;;;;;5042896;28;20029;-78
2023/12/21 06:47:28;;;;;;;5.65;1.20;;;10.50;99.90;;;;;;5045198;28;20324;-77
2023/12/21 06:49:54;;;;;;;8.65;1.00;;;10.50;99.90;;;;;;5036154;28;20509;-78
2023/12/21 06:52:21;;;;;;;6.40;1.13;;;10.50;99.90;;;;;;5038705;28;20410;-78
2023/12/21 06:54:47;;;;;;;5.43;1.80;;;10.50;99.90;;;;;;5040170;28;20094;-77
2023/12/21 06:57:13;;;;;;;8.60;1.25;;;10.50;99.90;;;;;;5037964;28;20072;-79
2023/12/21 06:59:38;;;;;;;8.75;1.25;;;10.50;99.90;;;;;;5045193;28;20207;-78
2023/12/21 07:02:05;;;;;;;10.57;1.23;;;10.50;99.90;;;;;;5047321;28;20106;-81
2023/12/21 07:04:30;;;;;;;7.60;1.50;;;10.60;99.90;;;;;;5052658;28;20497;-81
2023/12/21 07:06:58;;;;;;;7.15;1.92;;;10.50;99.90;;;;;;5047243;28;20048;-79
2023/12/21 07:09:23;;;;;;;6.70;1.00;;;10.60;99.90;;;;;;5043828;28;20025;-81
2023/12/21 07:11:49;;;;;;;9.57;1.67;;;10.50;99.90;;;;;;5045465;28;20406;-79
2023/12/21 07:14:15;;;;;;;11.15;1.63;;;10.50;99.90;;;;;;5070327;28;20155;-80
2023/12/21 07:16:41;;;;;;;6.53;1.65;;;10.50;99.90;;;;;;5037739;28;20030;-80
2023/12/21 07:19:06;;;;;;;7.75;2.17;;;10.50;99.90;;;;;;5027122;28;20037;-80
2023/12/21 07:21:32;;;;;;;8.23;1.90;;;10.50;99.90;;;;;;5045281;28;20077;-79
2023/12/21 07:23:57;;;;;;;6.93;1.80;;;10.50;99.90;;;;;;5045820;28;20112;-77
2023/12/21 07:26:24;;;;;;;11.52;2.22;;;10.50;99.90;;;;;;5037252;28;20036;-78
2023/12/21 07:28:50;;;;;;;10.38;2.03;;;10.50;99.90;;;;;;5056746;28;20033;-79
2023/12/21 07:31:17;;;;;;;6.95;1.70;;;10.50;99.90;;;;;;5041473;28;20076;-81
2023/12/21 07:33:43;;;;;;;6.03;1.20;;;10.50;99.90;;;;;;5065126;28;20113;-79
2023/12/21 07:36:09;;;;;;;10.93;1.60;;;10.50;99.90;;;;;;5048249;28;20059;-78
2023/12/21 07:38:36;;;;;;;11.70;2.00;;;10.50;99.90;;;;;;5047026;28;20025;-80
2023/12/21 07:41:02;;;;;;;15.70;2.38;;;10.60;99.90;;;;;;5047171;28;20037;-79
2023/12/21 07:43:29;;;;;;;11.30;1.85;;;10.50;99.90;;;;;;5049163;28;20327;-79
2023/12/21 07:45:56;;;;;;;9.80;1.75;;;10.50;99.90;;;;;;5044722;28;20037;-80
2023/12/21 07:48:21;;;;;;;9.15;1.70;;;10.50;99.90;;;;;;5047777;28;20108;-80
2023/12/21 07:50:47;;;;;;;10.05;1.65;;;10.50;99.90;;;;;;5031733;28;20175;-80
2023/12/21 07:53:12;;;;;;;9.45;1.52;;;10.50;99.90;;;;;;5042929;28;20116;-80
2023/12/21 07:55:38;;;;;;;10.88;2.20;;;10.50;99.90;;;;;;5049013;28;20244;-82
2023/12/21 07:58:05;;;;;;;7.45;1.60;;;10.50;99.90;;;;;;5048538;28;20017;-81
2023/12/21 08:00:32;;;;;;;7.45;1.40;;;10.50;99.90;;;;;;5035514;28;20029;-80
2023/12/21 08:02:57;;;;;;;7.93;1.10;;;10.50;99.90;;;;;;5043902;28;20016;-79
2023/12/21 08:05:23;;;;;;;10.35;1.20;;;10.50;99.90;;;;;;5046746;28;20040;-81
2023/12/21 08:07:52;;;;;;;7.15;1.13;;;10.50;99.90;;;;;;5042694;28;20031;-79
2023/12/21 08:10:18;;;;;;;8.35;1.50;;;10.60;99.90;;;;;;5045784;28;20024;-81
2023/12/21 08:12:44;;;;;;;7.13;1.30;;;10.50;99.90;;;;;;5045298;28;20025;-82
2023/12/21 08:15:10;;;;;;;7.32;0.90;;;10.60;99.90;;;;;;5066038;28;20040;-81
2023/12/21 08:17:36;;;;;;;13.65;1.48;;;10.50;99.90;;;;;;5046904;28;20029;-84
2023/12/21 08:20:04;;;;;;;7.70;1.02;;;10.60;99.90;;;;;;5035997;28;20029;-79
2023/12/21 08:22:31;;;;;;;9.73;0.88;;;10.60;99.90;;;;;;5046452;28;20045;-80
2023/12/21 08:24:58;;;;;;;6.15;0.75;;;10.60;99.90;;;;;;5048937;28;20021;-79
2023/12/21 08:27:24;;;;;;;7.80;0.80;;;10.60;99.90;;;;;;5037684;28;20055;-81
2023/12/21 08:29:50;;;;;;;3.45;0.60;;;10.60;99.90;;;;;;5041449;28;20333;-78
2023/12/21 08:32:18;;;;;;;8.25;0.70;;;10.70;99.90;;;;;;5046134;28;20021;-81
2023/12/21 08:34:44;;;;;;;5.43;0.90;;;10.70;99.90;;;;;;5063661;28;20052;-80
2023/12/21 08:37:10;;;;;;;5.90;0.65;;;10.70;99.90;;;;;;5060594;28;20494;-83
2023/12/21 08:39:36;;;;;;;4.88;0.70;;;10.70;99.90;;;;;;5080986;28;21123;-79
2023/12/21 08:42:02;;;;;;;5.22;0.95;;;10.70;99.90;;;;;;5046265;28;20410;-80
2023/12/21 08:44:28;;;;;;;3.15;0.57;;;10.70;99.90;;;;;;5042457;28;20112;-81
2023/12/21 08:46:54;;;;;;;3.33;0.40;;;10.70;99.90;;;;;;5039444;28;20366;-82
2023/12/21 08:49:20;;;;;;;6.05;0.60;;;10.80;99.90;;;;;;5047182;28;20079;-81
2023/12/21 08:51:46;;;;;;;4.60;0.70;;;10.80;99.90;;;;;;5048477;28;20104;-80
2023/12/21 08:54:11;;;;;;;9.18;0.63;;;10.80;99.90;;;;;;5042785;28;20036;-79
2023/12/21 08:56:44;;;;;;;4.85;0.55;;;10.80;99.90;;;;;;5040126;28;20406;-79
2023/12/21 08:59:10;;;;;;;6.20;0.60;;;10.80;99.90;;;;;;5045149;28;20052;-82
2023/12/21 09:01:35;;;;;;;5.45;0.50;;;10.80;99.90;;;;;;5035762;28;20037;-80
2023/12/21 09:04:02;;;;;;;5.28;0.63;;;10.80;99.90;;;;;;5037718;28;20032;-82
2023/12/21 09:06:28;;;;;;;6.47;0.50;;;10.80;99.90;;;;;;5047233;28;20055;-82
2023/12/21 09:08:53;;;;;;;4.10;0.60;;;10.90;99.90;;;;;;5048522;28;20024;-81
2023/12/21 09:11:19;;;;;;;7.15;0.80;;;10.90;99.90;;;;;;5046357;28;20029;-81
2023/12/21 09:13:45;;;;;;;4.15;0.50;;;10.90;99.90;;;;;;5037742;28;20029;-81
2023/12/21 09:16:10;;;;;;;6.72;0.50;;;10.90;99.90;;;;;;5041982;28;20028;-80
2023/12/21 09:18:36;;;;;;;8.57;0.50;;;10.90;99.90;;;;;;5045537;28;20138;-80
2023/12/21 09:21:03;;;;;;;3.92;0.85;;;10.90;99.90;;;;;;5044141;28;20132;-80
2023/12/21 09:23:29;;;;;;;6.40;0.80;;;11.00;99.90;;;;;;5046983;28;20028;-83
2023/12/21 09:25:55;;;;;;;8.52;0.50;;;11.00;99.90;;;;;;5076627;28;20052;-80
2023/12/21 09:28:22;;;;;;;10.30;0.73;;;11.00;99.90;;;;;;5062886;28;20048;-81
2023/12/21 09:30:48;;;;;;;7.95;1.38;;;11.00;99.90;;;;;;5043234;28;20037;-82
2023/12/21 09:33:13;;;;;;;8.85;0.85;;;11.00;99.90;;;;;;5037809;28;20444;-81
2023/12/21 09:35:39;;;;;;;7.22;0.50;;;11.00;99.90;;;;;;5042240;28;20423;-80
2023/12/21 09:38:05;;;;;;;8.10;0.70;;;11.00;99.90;;;;;;5046194;28;20021;-82
2023/12/21 09:40:32;;;;;;;9.90;1.17;;;11.10;99.90;;;;;;5047141;28;20033;-80
2023/12/21 09:42:59;;;;;;;13.48;0.70;;;11.10;99.90;;;;;;5039218;28;20025;-82
2023/12/21 09:45:26;;;;;;;5.10;0.80;;;11.00;99.90;;;;;;5043302;28;20025;-80
2023/12/21 09:47:52;;;;;;;8.98;0.60;;;11.10;99.90;;;;;;5047475;28;20028;-80
2023/12/21 09:50:19;;;;;;;9.93;1.00;;;11.10;99.90;;;;;;5035160;28;20029;-81
2023/12/21 09:52:47;;;;;;;6.80;0.40;;;11.10;99.90;;;;;;5077224;28;21100;-81
2023/12/21 09:55:15;;;;;;;8.13;0.50;;;11.10;99.90;;;;;;5044239;28;20393;-81
2023/12/21 09:57:41;;;;;;;5.45;0.40;;;11.10;99.90;;;;;;5044939;28;20036;-81
2023/12/21 10:00:08;;;;;;;6.60;0.60;;;11.20;99.90;;;;;;5049810;28;20120;-82
2023/12/21 10:02:40;;;;;;;9.98;0.57;;;11.20;99.90;;;;;;5076164;28;20396;-81
2023/12/21 10:05:06;;;;;;;7.63;0.57;;;11.20;99.90;;;;;;5050061;28;20119;-79
2023/12/21 10:07:33;;;;;;;9.15;0.50;;;11.20;99.90;;;;;;5047766;28;20141;-80
2023/12/21 10:09:59;;;;;;;9.98;0.50;;;11.20;99.90;;;;;;5050549;28;20554;-78
2023/12/21 10:12:24;;;;;;;8.70;0.77;;;11.30;99.90;;;;;;5039765;28;20029;-81
2023/12/21 10:14:59;;;;;;;6.72;0.60;;;11.30;99.90;;;;;;5064647;28;20025;-79
2023/12/21 10:17:25;;;;;;;8.85;1.35;;;11.30;99.90;;;;;;5049517;28;20025;-79
2023/12/21 10:19:52;;;;;;;9.38;0.57;;;11.30;99.90;;;;;;5048456;28;20031;-79
2023/12/21 10:22:19;;;;;;;8.55;0.93;;;11.40;99.90;;;;;;5038342;28;20068;-79
2023/12/21 10:24:47;;;;;;;7.05;0.50;;;11.40;99.90;;;;;;5046268;28;20108;-79
2023/12/21 10:27:13;;;;;;;5.53;0.45;;;11.40;99.90;;;;;;5048719;28;20035;-79
2023/12/21 10:29:40;;;;;;;4.43;0.40;;;11.40;99.90;;;;;;5049223;28;20100;-78
2023/12/21 10:32:06;;;;;;;9.02;1.45;;;11.30;99.90;;;;;;5045509;28;20547;-78
2023/12/21 10:34:31;;;;;;;6.30;1.38;;;11.30;99.90;;;;;;5050320;28;20021;-79
2023/12/21 10:37:01;;;;;;;6.97;0.55;;;11.30;99.90;;;;;;5042230;28;20423;-79
2023/12/21 10:39:27;;;;;;;10.80;0.60;;;11.40;99.90;;;;;;5046934;28;20482;-79
2023/12/21 10:41:56;;;;;;;6.03;0.50;;;11.40;99.90;;;;;;5039244;28;20378;-79
2023/12/21 10:44:21;;;;;;;3.20;0.30;;;11.40;99.90;;;;;;5049485;28;20174;-78
2023/12/21 10:46:48;;;;;;;5.85;0.45;;;11.40;99.90;;;;;;5044246;28;20147;-80
2023/12/21 10:49:15;;;;;;;4.53;0.32;;;11.40;99.90;;;;;;5047202;28;20017;-83
2023/12/21 10:51:43;;;;;;;7.40;0.90;;;11.40;99.90;;;;;;5049771;28;20036;-81
2023/12/21 10:54:11;;;;;;;4.50;0.50;;;11.50;99.90;;;;;;5050569;28;20504;-80
2023/12/21 10:56:44;;;;;;;4.30;0.40;;;11.50;99.90;;;;;;5049059;28;20025;-80
2023/12/21 10:59:12;;;;;;;4.22;0.30;;;11.50;99.90;;;;;;5024780;28;20041;-78
2023/12/21 11:01:39;;;;;;;8.48;1.02;;;11.60;99.90;;;;;;5032134;28;20037;-81
2023/12/21 11:04:06;;;;;;;6.15;0.50;;;11.50;99.90;;;;;;5051164;28;20041;-80
2023/12/21 11:06:33;;;;;;;5.75;0.30;;;11.60;99.90;;;;;;5040205;28;20051;-78
2023/12/21 11:09:00;;;;;;;3.50;0.30;;;11.60;99.90;;;;;;5042116;28;20024;-80
2023/12/21 11:11:26;;;;;;;5.55;0.47;;;11.60;99.90;;;;;;5080584;28;20032;-80
2023/12/21 11:13:54;;;;;;;6.00;0.30;;;11.60;99.90;;;;;;5048308;28;20025;-81
2023/12/21 11:16:24;;;;;;;3.05;0.30;;;11.60;99.90;;;;;;5050588;28;20024;-81
2023/12/21 11:18:53;;;;;;;2.38;0.30;;;11.60;99.90;;;;;;5081842;28;20021;-80
2023/12/21 11:21:22;;;;;;;7.00;0.38;;;11.60;99.90;;;;;;5047237;28;20033;-80
2023/12/21 11:23:48;;;;;;;4.05;0.40;;;11.60;99.90;;;;;;5054661;28;20037;-81
2023/12/21 11:26:21;;;;;;;3.40;0.40;;;11.50;99.90;;;;;;5048146;28;20029;-80
2023/12/21 11:28:47;;;;;;;4.60;0.60;;;11.50;99.90;;;;;;5043300;28;20331;-82
2023/12/21 11:31:14;;;;;;;4.47;0.30;;;11.50;99.90;;;;;;5081653;28;20049;-80
2023/12/21 11:33:40;;;;;;;4.75;0.30;;;11.50;99.90;;;;;;5048376;28;20152;-82
2023/12/21 11:36:07;;;;;;;3.85;0.22;;;11.40;99.90;;;;;;5046305;28;20061;-82
2023/12/21 11:38:46;;;;;;;4.63;0.30;;;11.40;99.90;;;;;;5045831;28;20484;-84
2023/12/21 11:41:13;;;;;;;6.03;0.30;;;11.50;99.90;;;;;;5046161;28;20037;-83
2023/12/21 11:43:39;;;;;;;4.15;0.30;;;11.50;99.90;;;;;;5045537;28;20481;-82
2023/12/21 11:46:04;;;;;;;4.22;0.30;;;11.50;99.90;;;;;;5040588;28;20025;-78
2023/12/21 11:48:35;;;;;;;3.00;0.30;;;11.50;99.90;;;;;;5044268;28;20021;-79
2023/12/21 11:51:04;;;;;;;3.42;0.20;;;11.40;99.90;;;;;;5048184;28;20036;-78
2023/12/21 11:53:31;;;;;;;5.32;0.52;;;11.40;99.90;;;;;;5044059;28;20033;-80
2023/12/21 11:55:57;;;;;;;2.45;0.20;;;11.40;99.90;;;;;;5046923;28;20075;-79
2023/12/21 11:58:23;;;;;;;4.22;0.40;;;11.40;99.90;;;;;;5047846;28;20469;-78
2023/12/21 12:00:50;;;;;;;6.85;0.30;;;11.40;99.90;;;;;;5048472;28;20068;-78
2023/12/21 12:03:17;;;;;;;4.32;0.85;;;11.50;99.90;;;;;;5047268;28;20033;-78
2023/12/21 12:05:44;;;;;;;4.07;0.45;;;11.40;99.90;;;;;;5048459;28;20326;-78
2023/12/21 12:08:10;;;;;;;3.97;0.30;;;11.40;99.90;;;;;;5047979;28;20119;-77
2023/12/21 12:10:36;;;;;;;4.75;0.30;;;11.30;99.90;;;;;;5047216;28;20043;-81
2023/12/21 12:13:03;;;;;;;4.03;0.30;;;11.30;99.90;;;;;;5080300;28;20397;-78
2023/12/21 12:15:30;;;;;;;6.43;0.38;;;11.30;99.90;;;;;;5079545;28;20021;-77
2023/12/21 12:17:55;;;;;;;6.07;0.47;;;11.30;99.90;;;;;;5078843;28;20012;-81
2023/12/21 12:20:21;;;;;;;4.18;0.30;;;11.30;99.90;;;;;;5045083;28;20492;-82
2023/12/21 12:22:50;;;;;;;4.07;0.50;;;11.30;99.90;;;;;;5051028;28;20029;-79
2023/12/21 12:25:16;;;;;;;4.38;0.35;;;11.30;99.90;;;;;;5047650;28;20033;-81
2023/12/21 12:27:43;;;;;;;3.00;0.38;;;11.30;99.90;;;;;;5047723;28;20036;-79
2023/12/21 12:30:11;;;;;;;5.00;0.32;;;11.50;99.90;;;;;;5043495;28;20036;-79
2023/12/21 12:32:37;;;;;;;5.07;0.30;;;11.70;99.90;;;;;;5079517;28;20036;-82
2023/12/21 12:35:03;;;;;;;4.05;0.32;;;11.60;99.90;;;;;;5079750;28;20036;-80